<?xml version="1.0" encoding="UTF-8" standalone="no" ?>
<gpx xmlns="http://www.topografix.com/GPX/1/1" xmlns:xsi="http://www.w3.org/2001/XMLSchema-instance" xsi:schemaLocation="http://www.topografix.com/GPX/1/1 http://www.topografix.com/GPX/1/1/gpx.xsd" version="1.1" creator="VisuGPX - https://www.visugpx.com">
  <metadata>
    <name>Chamechaude</name>
    <desc><![CDATA[Chamechaude en 2 montées: une première jusque au sommet et une autre jusque sous les falaises.]]></desc>
  </metadata>
  <trk>
    <name><![CDATA[Chamechaude]]></name>
    <trkseg>
      <trkpt lat="45.28969" lon="5.76735">
        <ele>1330.400024414</ele>
        <time>2013-01-22T12:56:00Z</time>
      </trkpt>
      <trkpt lat="45.28954" lon="5.76751">
        <ele>1331.599975586</ele>
        <time>2013-01-22T12:56:18Z</time>
      </trkpt>
      <trkpt lat="45.28934" lon="5.76767">
        <ele>1332.800048828</ele>
        <time>2013-01-22T12:56:34Z</time>
      </trkpt>
      <trkpt lat="45.28891" lon="5.76812">
        <ele>1336.599975586</ele>
        <time>2013-01-22T12:57:09Z</time>
      </trkpt>
      <trkpt lat="45.28879" lon="5.76832">
        <ele>1337.400024414</ele>
        <time>2013-01-22T12:57:20Z</time>
      </trkpt>
      <trkpt lat="45.28873" lon="5.76858">
        <ele>1340.400024414</ele>
        <time>2013-01-22T12:57:35Z</time>
      </trkpt>
      <trkpt lat="45.28874" lon="5.76888">
        <ele>1342.800048828</ele>
        <time>2013-01-22T12:57:52Z</time>
      </trkpt>
      <trkpt lat="45.28867" lon="5.76912">
        <ele>1345.400024414</ele>
        <time>2013-01-22T12:58:07Z</time>
      </trkpt>
      <trkpt lat="45.28858" lon="5.7693">
        <ele>1347.599975586</ele>
        <time>2013-01-22T12:58:25Z</time>
      </trkpt>
      <trkpt lat="45.28836" lon="5.76963">
        <ele>1352.199951172</ele>
        <time>2013-01-22T12:58:54Z</time>
      </trkpt>
      <trkpt lat="45.28826" lon="5.76983">
        <ele>1354.199951172</ele>
        <time>2013-01-22T12:59:09Z</time>
      </trkpt>
      <trkpt lat="45.28808" lon="5.77029">
        <ele>1358.199951172</ele>
        <time>2013-01-22T12:59:43Z</time>
      </trkpt>
      <trkpt lat="45.2881" lon="5.77034">
        <ele>1358.800048828</ele>
        <time>2013-01-22T12:59:47Z</time>
      </trkpt>
      <trkpt lat="45.28806" lon="5.77043">
        <ele>1359.599975586</ele>
        <time>2013-01-22T12:59:54Z</time>
      </trkpt>
      <trkpt lat="45.28803" lon="5.77073">
        <ele>1362.400024414</ele>
        <time>2013-01-22T13:00:16Z</time>
      </trkpt>
      <trkpt lat="45.28805" lon="5.77082">
        <ele>1363.400024414</ele>
        <time>2013-01-22T13:00:22Z</time>
      </trkpt>
      <trkpt lat="45.28797" lon="5.77098">
        <ele>1365.599975586</ele>
        <time>2013-01-22T13:00:34Z</time>
      </trkpt>
      <trkpt lat="45.28796" lon="5.77115">
        <ele>1368.199951172</ele>
        <time>2013-01-22T13:00:46Z</time>
      </trkpt>
      <trkpt lat="45.28798" lon="5.77124">
        <ele>1369.800048828</ele>
        <time>2013-01-22T13:00:52Z</time>
      </trkpt>
      <trkpt lat="45.28779" lon="5.7718">
        <ele>1379</ele>
        <time>2013-01-22T13:01:34Z</time>
      </trkpt>
      <trkpt lat="45.28766" lon="5.77206">
        <ele>1384.199951172</ele>
        <time>2013-01-22T13:01:57Z</time>
      </trkpt>
      <trkpt lat="45.2876" lon="5.77225">
        <ele>1388</ele>
        <time>2013-01-22T13:02:14Z</time>
      </trkpt>
      <trkpt lat="45.28749" lon="5.77242">
        <ele>1391.199951172</ele>
        <time>2013-01-22T13:02:27Z</time>
      </trkpt>
      <trkpt lat="45.2874" lon="5.77259">
        <ele>1395.400024414</ele>
        <time>2013-01-22T13:02:42Z</time>
      </trkpt>
      <trkpt lat="45.28741" lon="5.77263">
        <ele>1396.400024414</ele>
        <time>2013-01-22T13:02:46Z</time>
      </trkpt>
      <trkpt lat="45.28732" lon="5.77278">
        <ele>1400.599975586</ele>
        <time>2013-01-22T13:03:02Z</time>
      </trkpt>
      <trkpt lat="45.28729" lon="5.77288">
        <ele>1403</ele>
        <time>2013-01-22T13:03:13Z</time>
      </trkpt>
      <trkpt lat="45.28716" lon="5.7731">
        <ele>1408.599975586</ele>
        <time>2013-01-22T13:03:38Z</time>
      </trkpt>
      <trkpt lat="45.2871" lon="5.77327">
        <ele>1412.800048828</ele>
        <time>2013-01-22T13:03:58Z</time>
      </trkpt>
      <trkpt lat="45.2869" lon="5.77354">
        <ele>1419.599975586</ele>
        <time>2013-01-22T13:04:33Z</time>
      </trkpt>
      <trkpt lat="45.28679" lon="5.77354">
        <ele>1419.199951172</ele>
        <time>2013-01-22T13:05:16Z</time>
      </trkpt>
      <trkpt lat="45.28674" lon="5.77359">
        <ele>1420.599975586</ele>
        <time>2013-01-22T13:05:50Z</time>
      </trkpt>
      <trkpt lat="45.28647" lon="5.77401">
        <ele>1436.199951172</ele>
        <time>2013-01-22T13:06:46Z</time>
      </trkpt>
      <trkpt lat="45.28645" lon="5.77409">
        <ele>1438.800048828</ele>
        <time>2013-01-22T13:06:54Z</time>
      </trkpt>
      <trkpt lat="45.28646" lon="5.77447">
        <ele>1449</ele>
        <time>2013-01-22T13:07:32Z</time>
      </trkpt>
      <trkpt lat="45.28652" lon="5.77476">
        <ele>1455.800048828</ele>
        <time>2013-01-22T13:08:01Z</time>
      </trkpt>
      <trkpt lat="45.2865" lon="5.77485">
        <ele>1458.400024414</ele>
        <time>2013-01-22T13:08:11Z</time>
      </trkpt>
      <trkpt lat="45.28648" lon="5.77488">
        <ele>1459.400024414</ele>
        <time>2013-01-22T13:08:16Z</time>
      </trkpt>
      <trkpt lat="45.28609" lon="5.77491">
        <ele>1465.800048828</ele>
        <time>2013-01-22T13:09:06Z</time>
      </trkpt>
      <trkpt lat="45.28607" lon="5.77501">
        <ele>1468.599975586</ele>
        <time>2013-01-22T13:09:18Z</time>
      </trkpt>
      <trkpt lat="45.28618" lon="5.77546">
        <ele>1478.599975586</ele>
        <time>2013-01-22T13:10:04Z</time>
      </trkpt>
      <trkpt lat="45.28615" lon="5.77552">
        <ele>1480.400024414</ele>
        <time>2013-01-22T13:10:12Z</time>
      </trkpt>
      <trkpt lat="45.28591" lon="5.77555">
        <ele>1484.199951172</ele>
        <time>2013-01-22T13:10:46Z</time>
      </trkpt>
      <trkpt lat="45.28597" lon="5.77577">
        <ele>1488.800048828</ele>
        <time>2013-01-22T13:11:11Z</time>
      </trkpt>
      <trkpt lat="45.28576" lon="5.77583">
        <ele>1494.199951172</ele>
        <time>2013-01-22T13:11:40Z</time>
      </trkpt>
      <trkpt lat="45.28585" lon="5.77615">
        <ele>1502</ele>
        <time>2013-01-22T13:12:16Z</time>
      </trkpt>
      <trkpt lat="45.28571" lon="5.77623">
        <ele>1508.599975586</ele>
        <time>2013-01-22T13:12:42Z</time>
      </trkpt>
      <trkpt lat="45.28578" lon="5.77651">
        <ele>1515.400024414</ele>
        <time>2013-01-22T13:13:15Z</time>
      </trkpt>
      <trkpt lat="45.2855" lon="5.77657">
        <ele>1526</ele>
        <time>2013-01-22T13:13:54Z</time>
      </trkpt>
      <trkpt lat="45.28533" lon="5.77668">
        <ele>1534.199951172</ele>
        <time>2013-01-22T13:14:21Z</time>
      </trkpt>
      <trkpt lat="45.28535" lon="5.77672">
        <ele>1535.800048828</ele>
        <time>2013-01-22T13:14:25Z</time>
      </trkpt>
      <trkpt lat="45.28549" lon="5.77685">
        <ele>1537.199951172</ele>
        <time>2013-01-22T13:14:48Z</time>
      </trkpt>
      <trkpt lat="45.28555" lon="5.77697">
        <ele>1540.800048828</ele>
        <time>2013-01-22T13:15:00Z</time>
      </trkpt>
      <trkpt lat="45.28544" lon="5.77704">
        <ele>1547.199951172</ele>
        <time>2013-01-22T13:15:14Z</time>
      </trkpt>
      <trkpt lat="45.28548" lon="5.77715">
        <ele>1551</ele>
        <time>2013-01-22T13:15:27Z</time>
      </trkpt>
      <trkpt lat="45.28563" lon="5.7773">
        <ele>1554</ele>
        <time>2013-01-22T13:15:48Z</time>
      </trkpt>
      <trkpt lat="45.28575" lon="5.77754">
        <ele>1561.599975586</ele>
        <time>2013-01-22T13:16:15Z</time>
      </trkpt>
      <trkpt lat="45.28576" lon="5.77761">
        <ele>1564</ele>
        <time>2013-01-22T13:16:23Z</time>
      </trkpt>
      <trkpt lat="45.28578" lon="5.77761">
        <ele>1563.800048828</ele>
        <time>2013-01-22T13:16:27Z</time>
      </trkpt>
      <trkpt lat="45.28582" lon="5.77773">
        <ele>1567.400024414</ele>
        <time>2013-01-22T13:16:40Z</time>
      </trkpt>
      <trkpt lat="45.28582" lon="5.77779">
        <ele>1569.599975586</ele>
        <time>2013-01-22T13:16:45Z</time>
      </trkpt>
      <trkpt lat="45.28591" lon="5.77818">
        <ele>1583.800048828</ele>
        <time>2013-01-22T13:17:27Z</time>
      </trkpt>
      <trkpt lat="45.28595" lon="5.77821">
        <ele>1584.400024414</ele>
        <time>2013-01-22T13:17:32Z</time>
      </trkpt>
      <trkpt lat="45.28594" lon="5.77835">
        <ele>1589.800048828</ele>
        <time>2013-01-22T13:17:45Z</time>
      </trkpt>
      <trkpt lat="45.286" lon="5.77842">
        <ele>1592</ele>
        <time>2013-01-22T13:17:54Z</time>
      </trkpt>
      <trkpt lat="45.28604" lon="5.77861">
        <ele>1598.199951172</ele>
        <time>2013-01-22T13:18:14Z</time>
      </trkpt>
      <trkpt lat="45.2861" lon="5.77866">
        <ele>1599.400024414</ele>
        <time>2013-01-22T13:18:26Z</time>
      </trkpt>
      <trkpt lat="45.28621" lon="5.77883">
        <ele>1604.800048828</ele>
        <time>2013-01-22T13:18:54Z</time>
      </trkpt>
      <trkpt lat="45.28632" lon="5.77887">
        <ele>1605</ele>
        <time>2013-01-22T13:19:09Z</time>
      </trkpt>
      <trkpt lat="45.28644" lon="5.77896">
        <ele>1607.599975586</ele>
        <time>2013-01-22T13:19:33Z</time>
      </trkpt>
      <trkpt lat="45.28634" lon="5.77918">
        <ele>1617</ele>
        <time>2013-01-22T13:20:01Z</time>
      </trkpt>
      <trkpt lat="45.28616" lon="5.77941">
        <ele>1628</ele>
        <time>2013-01-22T13:20:37Z</time>
      </trkpt>
      <trkpt lat="45.28609" lon="5.77956">
        <ele>1634.199951172</ele>
        <time>2013-01-22T13:20:57Z</time>
      </trkpt>
      <trkpt lat="45.28602" lon="5.77964">
        <ele>1637.199951172</ele>
        <time>2013-01-22T13:21:17Z</time>
      </trkpt>
      <trkpt lat="45.28591" lon="5.77963">
        <ele>1637.400024414</ele>
        <time>2013-01-22T13:21:36Z</time>
      </trkpt>
      <trkpt lat="45.28589" lon="5.7796">
        <ele>1636.400024414</ele>
        <time>2013-01-22T13:21:41Z</time>
      </trkpt>
      <trkpt lat="45.28582" lon="5.77965">
        <ele>1638.800048828</ele>
        <time>2013-01-22T13:21:55Z</time>
      </trkpt>
      <trkpt lat="45.28591" lon="5.77998">
        <ele>1650.199951172</ele>
        <time>2013-01-22T13:22:36Z</time>
      </trkpt>
      <trkpt lat="45.28596" lon="5.78007">
        <ele>1654.199951172</ele>
        <time>2013-01-22T13:22:48Z</time>
      </trkpt>
      <trkpt lat="45.28604" lon="5.78013">
        <ele>1656.800048828</ele>
        <time>2013-01-22T13:22:58Z</time>
      </trkpt>
      <trkpt lat="45.28608" lon="5.78012">
        <ele>1656.400024414</ele>
        <time>2013-01-22T13:23:03Z</time>
      </trkpt>
      <trkpt lat="45.28617" lon="5.78022">
        <ele>1661</ele>
        <time>2013-01-22T13:23:21Z</time>
      </trkpt>
      <trkpt lat="45.28624" lon="5.78027">
        <ele>1662.800048828</ele>
        <time>2013-01-22T13:23:30Z</time>
      </trkpt>
      <trkpt lat="45.28642" lon="5.7803">
        <ele>1663.599975586</ele>
        <time>2013-01-22T13:23:54Z</time>
      </trkpt>
      <trkpt lat="45.28631" lon="5.78039">
        <ele>1667.800048828</ele>
        <time>2013-01-22T13:24:14Z</time>
      </trkpt>
      <trkpt lat="45.28635" lon="5.78042">
        <ele>1669.199951172</ele>
        <time>2013-01-22T13:24:24Z</time>
      </trkpt>
      <trkpt lat="45.28665" lon="5.78052">
        <ele>1672</ele>
        <time>2013-01-22T13:25:10Z</time>
      </trkpt>
      <trkpt lat="45.28653" lon="5.78071">
        <ele>1680</ele>
        <time>2013-01-22T13:25:37Z</time>
      </trkpt>
      <trkpt lat="45.28622" lon="5.78095">
        <ele>1693.599975586</ele>
        <time>2013-01-22T13:26:26Z</time>
      </trkpt>
      <trkpt lat="45.28653" lon="5.78115">
        <ele>1700</ele>
        <time>2013-01-22T13:27:13Z</time>
      </trkpt>
      <trkpt lat="45.28663" lon="5.78114">
        <ele>1698</ele>
        <time>2013-01-22T13:27:27Z</time>
      </trkpt>
      <trkpt lat="45.28672" lon="5.78118">
        <ele>1699</ele>
        <time>2013-01-22T13:27:45Z</time>
      </trkpt>
      <trkpt lat="45.28662" lon="5.78137">
        <ele>1708.199951172</ele>
        <time>2013-01-22T13:28:19Z</time>
      </trkpt>
      <trkpt lat="45.28645" lon="5.78153">
        <ele>1720.400024414</ele>
        <time>2013-01-22T13:28:54Z</time>
      </trkpt>
      <trkpt lat="45.2866" lon="5.7817">
        <ele>1724</ele>
        <time>2013-01-22T13:29:23Z</time>
      </trkpt>
      <trkpt lat="45.28665" lon="5.78169">
        <ele>1722.199951172</ele>
        <time>2013-01-22T13:29:29Z</time>
      </trkpt>
      <trkpt lat="45.2868" lon="5.78178">
        <ele>1727.199951172</ele>
        <time>2013-01-22T13:29:54Z</time>
      </trkpt>
      <trkpt lat="45.28695" lon="5.7818">
        <ele>1729</ele>
        <time>2013-01-22T13:30:18Z</time>
      </trkpt>
      <trkpt lat="45.28708" lon="5.78187">
        <ele>1733.599975586</ele>
        <time>2013-01-22T13:30:43Z</time>
      </trkpt>
      <trkpt lat="45.28708" lon="5.7819">
        <ele>1735</ele>
        <time>2013-01-22T13:30:46Z</time>
      </trkpt>
      <trkpt lat="45.28696" lon="5.7821">
        <ele>1747.800048828</ele>
        <time>2013-01-22T13:31:13Z</time>
      </trkpt>
      <trkpt lat="45.28678" lon="5.78227">
        <ele>1759</ele>
        <time>2013-01-22T13:31:37Z</time>
      </trkpt>
      <trkpt lat="45.28652" lon="5.78233">
        <ele>1767</ele>
        <time>2013-01-22T13:32:08Z</time>
      </trkpt>
      <trkpt lat="45.28632" lon="5.78222">
        <ele>1766.199951172</ele>
        <time>2013-01-22T13:32:29Z</time>
      </trkpt>
      <trkpt lat="45.2862" lon="5.78211">
        <ele>1762.199951172</ele>
        <time>2013-01-22T13:32:42Z</time>
      </trkpt>
      <trkpt lat="45.28585" lon="5.78213">
        <ele>1773.800048828</ele>
        <time>2013-01-22T13:33:34Z</time>
      </trkpt>
      <trkpt lat="45.28521" lon="5.78235">
        <ele>1800.400024414</ele>
        <time>2013-01-22T13:35:28Z</time>
      </trkpt>
      <trkpt lat="45.28511" lon="5.78233">
        <ele>1801.599975586</ele>
        <time>2013-01-22T13:35:46Z</time>
      </trkpt>
      <trkpt lat="45.28496" lon="5.78236">
        <ele>1805.800048828</ele>
        <time>2013-01-22T13:36:11Z</time>
      </trkpt>
      <trkpt lat="45.28473" lon="5.78233">
        <ele>1808</ele>
        <time>2013-01-22T13:36:51Z</time>
      </trkpt>
      <trkpt lat="45.28462" lon="5.78237">
        <ele>1811.199951172</ele>
        <time>2013-01-22T13:37:06Z</time>
      </trkpt>
      <trkpt lat="45.28463" lon="5.78247">
        <ele>1814.400024414</ele>
        <time>2013-01-22T13:37:20Z</time>
      </trkpt>
      <trkpt lat="45.2846" lon="5.78252">
        <ele>1816.199951172</ele>
        <time>2013-01-22T13:37:25Z</time>
      </trkpt>
      <trkpt lat="45.28447" lon="5.7825">
        <ele>1817.199951172</ele>
        <time>2013-01-22T13:37:45Z</time>
      </trkpt>
      <trkpt lat="45.28436" lon="5.7826">
        <ele>1821.800048828</ele>
        <time>2013-01-22T13:38:10Z</time>
      </trkpt>
      <trkpt lat="45.28438" lon="5.78272">
        <ele>1825.400024414</ele>
        <time>2013-01-22T13:38:29Z</time>
      </trkpt>
      <trkpt lat="45.28438" lon="5.78269">
        <ele>1824.599975586</ele>
        <time>2013-01-22T13:38:51Z</time>
      </trkpt>
      <trkpt lat="45.2844" lon="5.78275">
        <ele>1826.199951172</ele>
        <time>2013-01-22T13:39:00Z</time>
      </trkpt>
      <trkpt lat="45.28439" lon="5.78315">
        <ele>1839.599975586</ele>
        <time>2013-01-22T13:39:45Z</time>
      </trkpt>
      <trkpt lat="45.28443" lon="5.78339">
        <ele>1847.400024414</ele>
        <time>2013-01-22T13:40:17Z</time>
      </trkpt>
      <trkpt lat="45.28457" lon="5.78362">
        <ele>1854.599975586</ele>
        <time>2013-01-22T13:40:49Z</time>
      </trkpt>
      <trkpt lat="45.28456" lon="5.78365">
        <ele>1855.800048828</ele>
        <time>2013-01-22T13:40:53Z</time>
      </trkpt>
      <trkpt lat="45.28414" lon="5.78387">
        <ele>1867.599975586</ele>
        <time>2013-01-22T13:41:49Z</time>
      </trkpt>
      <trkpt lat="45.28429" lon="5.78421">
        <ele>1878.400024414</ele>
        <time>2013-01-22T13:42:36Z</time>
      </trkpt>
      <trkpt lat="45.28448" lon="5.78449">
        <ele>1887.199951172</ele>
        <time>2013-01-22T13:43:14Z</time>
      </trkpt>
      <trkpt lat="45.28452" lon="5.7846">
        <ele>1891</ele>
        <time>2013-01-22T13:43:30Z</time>
      </trkpt>
      <trkpt lat="45.28461" lon="5.78475">
        <ele>1896.199951172</ele>
        <time>2013-01-22T13:44:03Z</time>
      </trkpt>
      <trkpt lat="45.28446" lon="5.785">
        <ele>1905.400024414</ele>
        <time>2013-01-22T13:44:33Z</time>
      </trkpt>
      <trkpt lat="45.28434" lon="5.78512">
        <ele>1908.800048828</ele>
        <time>2013-01-22T13:44:54Z</time>
      </trkpt>
      <trkpt lat="45.28453" lon="5.78537">
        <ele>1918</ele>
        <time>2013-01-22T13:45:40Z</time>
      </trkpt>
      <trkpt lat="45.28474" lon="5.78556">
        <ele>1926.400024414</ele>
        <time>2013-01-22T13:46:20Z</time>
      </trkpt>
      <trkpt lat="45.2845" lon="5.78584">
        <ele>1933.400024414</ele>
        <time>2013-01-22T13:47:08Z</time>
      </trkpt>
      <trkpt lat="45.28467" lon="5.78599">
        <ele>1938.599975586</ele>
        <time>2013-01-22T13:47:44Z</time>
      </trkpt>
      <trkpt lat="45.28494" lon="5.78613">
        <ele>1949.800048828</ele>
        <time>2013-01-22T13:48:24Z</time>
      </trkpt>
      <trkpt lat="45.28465" lon="5.78651">
        <ele>1947.599975586</ele>
        <time>2013-01-22T13:49:32Z</time>
      </trkpt>
      <trkpt lat="45.28477" lon="5.7866">
        <ele>1956.199951172</ele>
        <time>2013-01-22T13:49:55Z</time>
      </trkpt>
      <trkpt lat="45.28521" lon="5.78682">
        <ele>1975.599975586</ele>
        <time>2013-01-22T13:51:12Z</time>
      </trkpt>
      <trkpt lat="45.2855" lon="5.78692">
        <ele>1978</ele>
        <time>2013-01-22T13:51:56Z</time>
      </trkpt>
      <trkpt lat="45.28536" lon="5.78718">
        <ele>1962.800048828</ele>
        <time>2013-01-22T13:52:36Z</time>
      </trkpt>
      <trkpt lat="45.2855" lon="5.78719">
        <ele>1967.599975586</ele>
        <time>2013-01-22T13:52:57Z</time>
      </trkpt>
      <trkpt lat="45.2857" lon="5.78716">
        <ele>1975</ele>
        <time>2013-01-22T13:53:22Z</time>
      </trkpt>
      <trkpt lat="45.28586" lon="5.78722">
        <ele>1981.400024414</ele>
        <time>2013-01-22T13:53:49Z</time>
      </trkpt>
      <trkpt lat="45.28605" lon="5.78719">
        <ele>1992.599975586</ele>
        <time>2013-01-22T13:54:10Z</time>
      </trkpt>
      <trkpt lat="45.28616" lon="5.78723">
        <ele>1999.199951172</ele>
        <time>2013-01-22T13:54:30Z</time>
      </trkpt>
      <trkpt lat="45.28609" lon="5.7873">
        <ele>1996.400024414</ele>
        <time>2013-01-22T13:54:46Z</time>
      </trkpt>
      <trkpt lat="45.28632" lon="5.78744">
        <ele>2014.199951172</ele>
        <time>2013-01-22T13:55:31Z</time>
      </trkpt>
      <trkpt lat="45.28607" lon="5.78761">
        <ele>1993.800048828</ele>
        <time>2013-01-22T13:56:14Z</time>
      </trkpt>
      <trkpt lat="45.28614" lon="5.78767">
        <ele>1996.400024414</ele>
        <time>2013-01-22T13:56:34Z</time>
      </trkpt>
      <trkpt lat="45.28595" lon="5.7878">
        <ele>1980</ele>
        <time>2013-01-22T13:57:15Z</time>
      </trkpt>
      <trkpt lat="45.28626" lon="5.78798">
        <ele>1992.400024414</ele>
        <time>2013-01-22T13:58:12Z</time>
      </trkpt>
      <trkpt lat="45.28653" lon="5.78802">
        <ele>2005.400024414</ele>
        <time>2013-01-22T13:58:43Z</time>
      </trkpt>
      <trkpt lat="45.28666" lon="5.78799">
        <ele>2014.400024414</ele>
        <time>2013-01-22T13:58:55Z</time>
      </trkpt>
      <trkpt lat="45.2867" lon="5.78795">
        <ele>2019</ele>
        <time>2013-01-22T13:59:03Z</time>
      </trkpt>
      <trkpt lat="45.28684" lon="5.78799">
        <ele>2024.199951172</ele>
        <time>2013-01-22T13:59:15Z</time>
      </trkpt>
      <trkpt lat="45.28706" lon="5.78795">
        <ele>2036.400024414</ele>
        <time>2013-01-22T13:59:37Z</time>
      </trkpt>
      <trkpt lat="45.28711" lon="5.78788">
        <ele>2038.800048828</ele>
        <time>2013-01-22T14:00:21Z</time>
      </trkpt>
      <trkpt lat="45.2871" lon="5.78785">
        <ele>2038.800048828</ele>
        <time>2013-01-22T14:00:34Z</time>
      </trkpt>
      <trkpt lat="45.28714" lon="5.78782">
        <ele>2040.199951172</ele>
        <time>2013-01-22T14:00:40Z</time>
      </trkpt>
      <trkpt lat="45.28718" lon="5.78784">
        <ele>2041.800048828</ele>
        <time>2013-01-22T14:00:55Z</time>
      </trkpt>
      <trkpt lat="45.28714" lon="5.7878">
        <ele>2040.400024414</ele>
        <time>2013-01-22T14:02:43Z</time>
      </trkpt>
      <trkpt lat="45.28718" lon="5.78778">
        <ele>2041.599975586</ele>
        <time>2013-01-22T14:05:21Z</time>
      </trkpt>
      <trkpt lat="45.28718" lon="5.78783">
        <ele>2041.599975586</ele>
        <time>2013-01-22T14:06:15Z</time>
      </trkpt>
      <trkpt lat="45.2875" lon="5.78801">
        <ele>2060</ele>
        <time>2013-01-22T14:07:15Z</time>
      </trkpt>
      <trkpt lat="45.2877" lon="5.78819">
        <ele>2065.800048828</ele>
        <time>2013-01-22T14:07:46Z</time>
      </trkpt>
      <trkpt lat="45.28762" lon="5.78814">
        <ele>2064.600097656</ele>
        <time>2013-01-22T14:12:45Z</time>
      </trkpt>
      <trkpt lat="45.28746" lon="5.78798">
        <ele>2056.399902344</ele>
        <time>2013-01-22T14:13:09Z</time>
      </trkpt>
      <trkpt lat="45.28714" lon="5.78782">
        <ele>2040.400024414</ele>
        <time>2013-01-22T14:13:55Z</time>
      </trkpt>
      <trkpt lat="45.28717" lon="5.78784">
        <ele>2041.199951172</ele>
        <time>2013-01-22T14:14:08Z</time>
      </trkpt>
      <trkpt lat="45.28712" lon="5.78783">
        <ele>2039.800048828</ele>
        <time>2013-01-22T14:14:53Z</time>
      </trkpt>
      <trkpt lat="45.28704" lon="5.78793">
        <ele>2035.400024414</ele>
        <time>2013-01-22T14:15:26Z</time>
      </trkpt>
      <trkpt lat="45.287" lon="5.78791">
        <ele>2034</ele>
        <time>2013-01-22T14:15:44Z</time>
      </trkpt>
      <trkpt lat="45.28705" lon="5.78794">
        <ele>2035.599975586</ele>
        <time>2013-01-22T14:19:27Z</time>
      </trkpt>
      <trkpt lat="45.28687" lon="5.78794">
        <ele>2027.199951172</ele>
        <time>2013-01-22T14:21:05Z</time>
      </trkpt>
      <trkpt lat="45.28673" lon="5.78787">
        <ele>2023.800048828</ele>
        <time>2013-01-22T14:21:13Z</time>
      </trkpt>
      <trkpt lat="45.2864" lon="5.78795">
        <ele>2001.599975586</ele>
        <time>2013-01-22T14:21:38Z</time>
      </trkpt>
      <trkpt lat="45.28638" lon="5.78793">
        <ele>2001.599975586</ele>
        <time>2013-01-22T14:21:41Z</time>
      </trkpt>
      <trkpt lat="45.28659" lon="5.78779">
        <ele>2020.800048828</ele>
        <time>2013-01-22T14:21:56Z</time>
      </trkpt>
      <trkpt lat="45.28665" lon="5.78762">
        <ele>2034</ele>
        <time>2013-01-22T14:22:11Z</time>
      </trkpt>
      <trkpt lat="45.28657" lon="5.78751">
        <ele>2034.199951172</ele>
        <time>2013-01-22T14:22:14Z</time>
      </trkpt>
      <trkpt lat="45.28665" lon="5.78744">
        <ele>2037.800048828</ele>
        <time>2013-01-22T14:22:17Z</time>
      </trkpt>
      <trkpt lat="45.28662" lon="5.78738">
        <ele>2033.400024414</ele>
        <time>2013-01-22T14:22:19Z</time>
      </trkpt>
      <trkpt lat="45.28671" lon="5.78711">
        <ele>2023.800048828</ele>
        <time>2013-01-22T14:22:26Z</time>
      </trkpt>
      <trkpt lat="45.28694" lon="5.78693">
        <ele>2014.599975586</ele>
        <time>2013-01-22T14:22:33Z</time>
      </trkpt>
      <trkpt lat="45.28706" lon="5.78675">
        <ele>2005.599975586</ele>
        <time>2013-01-22T14:22:39Z</time>
      </trkpt>
      <trkpt lat="45.28705" lon="5.78672">
        <ele>2004.599975586</ele>
        <time>2013-01-22T14:22:40Z</time>
      </trkpt>
      <trkpt lat="45.28707" lon="5.78662">
        <ele>1999.800048828</ele>
        <time>2013-01-22T14:22:43Z</time>
      </trkpt>
      <trkpt lat="45.28716" lon="5.78645">
        <ele>1991.599975586</ele>
        <time>2013-01-22T14:22:47Z</time>
      </trkpt>
      <trkpt lat="45.28726" lon="5.78612">
        <ele>1976.599975586</ele>
        <time>2013-01-22T14:22:54Z</time>
      </trkpt>
      <trkpt lat="45.28721" lon="5.78613">
        <ele>1976.800048828</ele>
        <time>2013-01-22T14:24:13Z</time>
      </trkpt>
      <trkpt lat="45.28696" lon="5.78603">
        <ele>1971</ele>
        <time>2013-01-22T14:24:19Z</time>
      </trkpt>
      <trkpt lat="45.28692" lon="5.78591">
        <ele>1965.400024414</ele>
        <time>2013-01-22T14:24:21Z</time>
      </trkpt>
      <trkpt lat="45.28702" lon="5.78566">
        <ele>1952.199951172</ele>
        <time>2013-01-22T14:24:25Z</time>
      </trkpt>
      <trkpt lat="45.28705" lon="5.78545">
        <ele>1941</ele>
        <time>2013-01-22T14:24:29Z</time>
      </trkpt>
      <trkpt lat="45.28706" lon="5.78515">
        <ele>1924.199951172</ele>
        <time>2013-01-22T14:24:35Z</time>
      </trkpt>
      <trkpt lat="45.28709" lon="5.78491">
        <ele>1910.800048828</ele>
        <time>2013-01-22T14:24:42Z</time>
      </trkpt>
      <trkpt lat="45.28709" lon="5.78493">
        <ele>1912.199951172</ele>
        <time>2013-01-22T14:24:51Z</time>
      </trkpt>
      <trkpt lat="45.28705" lon="5.78469">
        <ele>1895</ele>
        <time>2013-01-22T14:25:06Z</time>
      </trkpt>
      <trkpt lat="45.28706" lon="5.78449">
        <ele>1881.599975586</ele>
        <time>2013-01-22T14:25:09Z</time>
      </trkpt>
      <trkpt lat="45.28713" lon="5.7843">
        <ele>1870.400024414</ele>
        <time>2013-01-22T14:25:12Z</time>
      </trkpt>
      <trkpt lat="45.28725" lon="5.78411">
        <ele>1862.199951172</ele>
        <time>2013-01-22T14:25:16Z</time>
      </trkpt>
      <trkpt lat="45.28725" lon="5.78403">
        <ele>1858.199951172</ele>
        <time>2013-01-22T14:25:18Z</time>
      </trkpt>
      <trkpt lat="45.28722" lon="5.78402">
        <ele>1856.800048828</ele>
        <time>2013-01-22T14:25:21Z</time>
      </trkpt>
      <trkpt lat="45.28724" lon="5.78405">
        <ele>1859</ele>
        <time>2013-01-22T14:25:28Z</time>
      </trkpt>
      <trkpt lat="45.28729" lon="5.78396">
        <ele>1855.599975586</ele>
        <time>2013-01-22T14:25:37Z</time>
      </trkpt>
      <trkpt lat="45.28781" lon="5.78379">
        <ele>1843.199951172</ele>
        <time>2013-01-22T14:25:50Z</time>
      </trkpt>
      <trkpt lat="45.2881" lon="5.78378">
        <ele>1834.800048828</ele>
        <time>2013-01-22T14:26:03Z</time>
      </trkpt>
      <trkpt lat="45.28841" lon="5.78385">
        <ele>1831.400024414</ele>
        <time>2013-01-22T14:26:11Z</time>
      </trkpt>
      <trkpt lat="45.2885" lon="5.78379">
        <ele>1825.199951172</ele>
        <time>2013-01-22T14:26:15Z</time>
      </trkpt>
      <trkpt lat="45.28848" lon="5.78374">
        <ele>1822.199951172</ele>
        <time>2013-01-22T14:26:16Z</time>
      </trkpt>
      <trkpt lat="45.28859" lon="5.78339">
        <ele>1795.199951172</ele>
        <time>2013-01-22T14:26:23Z</time>
      </trkpt>
      <trkpt lat="45.28865" lon="5.78307">
        <ele>1775.400024414</ele>
        <time>2013-01-22T14:26:29Z</time>
      </trkpt>
      <trkpt lat="45.28876" lon="5.78287">
        <ele>1761.800048828</ele>
        <time>2013-01-22T14:26:33Z</time>
      </trkpt>
      <trkpt lat="45.28875" lon="5.78281">
        <ele>1759</ele>
        <time>2013-01-22T14:26:34Z</time>
      </trkpt>
      <trkpt lat="45.2888" lon="5.78269">
        <ele>1751.400024414</ele>
        <time>2013-01-22T14:26:36Z</time>
      </trkpt>
      <trkpt lat="45.28889" lon="5.78257">
        <ele>1743.199951172</ele>
        <time>2013-01-22T14:26:39Z</time>
      </trkpt>
      <trkpt lat="45.28902" lon="5.78252">
        <ele>1737.800048828</ele>
        <time>2013-01-22T14:26:42Z</time>
      </trkpt>
      <trkpt lat="45.28921" lon="5.78232">
        <ele>1725.199951172</ele>
        <time>2013-01-22T14:26:47Z</time>
      </trkpt>
      <trkpt lat="45.28924" lon="5.78231">
        <ele>1723.400024414</ele>
        <time>2013-01-22T14:26:51Z</time>
      </trkpt>
      <trkpt lat="45.28923" lon="5.78233">
        <ele>1724.599975586</ele>
        <time>2013-01-22T14:27:17Z</time>
      </trkpt>
      <trkpt lat="45.28922" lon="5.78224">
        <ele>1721.599975586</ele>
        <time>2013-01-22T14:27:28Z</time>
      </trkpt>
      <trkpt lat="45.28927" lon="5.782">
        <ele>1710</ele>
        <time>2013-01-22T14:27:32Z</time>
      </trkpt>
      <trkpt lat="45.28928" lon="5.7818">
        <ele>1701.599975586</ele>
        <time>2013-01-22T14:27:35Z</time>
      </trkpt>
      <trkpt lat="45.28922" lon="5.78162">
        <ele>1695.800048828</ele>
        <time>2013-01-22T14:27:39Z</time>
      </trkpt>
      <trkpt lat="45.28924" lon="5.78143">
        <ele>1688</ele>
        <time>2013-01-22T14:27:42Z</time>
      </trkpt>
      <trkpt lat="45.28916" lon="5.78129">
        <ele>1684</ele>
        <time>2013-01-22T14:27:45Z</time>
      </trkpt>
      <trkpt lat="45.28913" lon="5.78113">
        <ele>1678.199951172</ele>
        <time>2013-01-22T14:27:48Z</time>
      </trkpt>
      <trkpt lat="45.2892" lon="5.781">
        <ele>1672.199951172</ele>
        <time>2013-01-22T14:27:52Z</time>
      </trkpt>
      <trkpt lat="45.2892" lon="5.78102">
        <ele>1673</ele>
        <time>2013-01-22T14:27:57Z</time>
      </trkpt>
      <trkpt lat="45.28904" lon="5.78069">
        <ele>1661.800048828</ele>
        <time>2013-01-22T14:28:13Z</time>
      </trkpt>
      <trkpt lat="45.28914" lon="5.78036">
        <ele>1648.199951172</ele>
        <time>2013-01-22T14:28:19Z</time>
      </trkpt>
      <trkpt lat="45.28916" lon="5.78037">
        <ele>1648.199951172</ele>
        <time>2013-01-22T14:28:20Z</time>
      </trkpt>
      <trkpt lat="45.28916" lon="5.78043">
        <ele>1650.400024414</ele>
        <time>2013-01-22T14:28:23Z</time>
      </trkpt>
      <trkpt lat="45.28918" lon="5.78042">
        <ele>1650</ele>
        <time>2013-01-22T14:28:30Z</time>
      </trkpt>
      <trkpt lat="45.28919" lon="5.78035">
        <ele>1647</ele>
        <time>2013-01-22T14:28:32Z</time>
      </trkpt>
      <trkpt lat="45.28902" lon="5.78019">
        <ele>1642.800048828</ele>
        <time>2013-01-22T14:28:36Z</time>
      </trkpt>
      <trkpt lat="45.28906" lon="5.78019">
        <ele>1642.199951172</ele>
        <time>2013-01-22T14:28:39Z</time>
      </trkpt>
      <trkpt lat="45.2891" lon="5.78006">
        <ele>1636.800048828</ele>
        <time>2013-01-22T14:28:42Z</time>
      </trkpt>
      <trkpt lat="45.28908" lon="5.77992">
        <ele>1632.199951172</ele>
        <time>2013-01-22T14:28:44Z</time>
      </trkpt>
      <trkpt lat="45.28885" lon="5.77975">
        <ele>1629</ele>
        <time>2013-01-22T14:28:49Z</time>
      </trkpt>
      <trkpt lat="45.28874" lon="5.77948">
        <ele>1620.800048828</ele>
        <time>2013-01-22T14:28:56Z</time>
      </trkpt>
      <trkpt lat="45.28877" lon="5.77925">
        <ele>1612.599975586</ele>
        <time>2013-01-22T14:29:00Z</time>
      </trkpt>
      <trkpt lat="45.28888" lon="5.77906">
        <ele>1604.599975586</ele>
        <time>2013-01-22T14:29:04Z</time>
      </trkpt>
      <trkpt lat="45.28892" lon="5.77893">
        <ele>1599.400024414</ele>
        <time>2013-01-22T14:29:08Z</time>
      </trkpt>
      <trkpt lat="45.28897" lon="5.77893">
        <ele>1599.199951172</ele>
        <time>2013-01-22T14:29:12Z</time>
      </trkpt>
      <trkpt lat="45.28893" lon="5.77894">
        <ele>1599.800048828</ele>
        <time>2013-01-22T14:29:17Z</time>
      </trkpt>
      <trkpt lat="45.28891" lon="5.7789">
        <ele>1598.599975586</ele>
        <time>2013-01-22T14:29:36Z</time>
      </trkpt>
      <trkpt lat="45.28898" lon="5.77882">
        <ele>1595</ele>
        <time>2013-01-22T14:29:39Z</time>
      </trkpt>
      <trkpt lat="45.28904" lon="5.77862">
        <ele>1587</ele>
        <time>2013-01-22T14:29:43Z</time>
      </trkpt>
      <trkpt lat="45.28907" lon="5.77836">
        <ele>1577.599975586</ele>
        <time>2013-01-22T14:29:47Z</time>
      </trkpt>
      <trkpt lat="45.28904" lon="5.77841">
        <ele>1579.599975586</ele>
        <time>2013-01-22T14:29:49Z</time>
      </trkpt>
      <trkpt lat="45.28906" lon="5.7784">
        <ele>1579.199951172</ele>
        <time>2013-01-22T14:29:55Z</time>
      </trkpt>
      <trkpt lat="45.28904" lon="5.77826">
        <ele>1574.199951172</ele>
        <time>2013-01-22T14:29:57Z</time>
      </trkpt>
      <trkpt lat="45.2891" lon="5.77807">
        <ele>1566.599975586</ele>
        <time>2013-01-22T14:30:01Z</time>
      </trkpt>
      <trkpt lat="45.28909" lon="5.77789">
        <ele>1560.199951172</ele>
        <time>2013-01-22T14:30:04Z</time>
      </trkpt>
      <trkpt lat="45.28916" lon="5.77767">
        <ele>1552.199951172</ele>
        <time>2013-01-22T14:30:08Z</time>
      </trkpt>
      <trkpt lat="45.28936" lon="5.77769">
        <ele>1548.599975586</ele>
        <time>2013-01-22T14:30:13Z</time>
      </trkpt>
      <trkpt lat="45.28925" lon="5.77755">
        <ele>1546</ele>
        <time>2013-01-22T14:30:17Z</time>
      </trkpt>
      <trkpt lat="45.28914" lon="5.77726">
        <ele>1537</ele>
        <time>2013-01-22T14:30:22Z</time>
      </trkpt>
      <trkpt lat="45.28922" lon="5.77725">
        <ele>1535.599975586</ele>
        <time>2013-01-22T14:30:25Z</time>
      </trkpt>
      <trkpt lat="45.28938" lon="5.77716">
        <ele>1529.599975586</ele>
        <time>2013-01-22T14:30:29Z</time>
      </trkpt>
      <trkpt lat="45.28939" lon="5.77704">
        <ele>1525</ele>
        <time>2013-01-22T14:30:32Z</time>
      </trkpt>
      <trkpt lat="45.28936" lon="5.77698">
        <ele>1523.400024414</ele>
        <time>2013-01-22T14:30:35Z</time>
      </trkpt>
      <trkpt lat="45.28932" lon="5.77697">
        <ele>1523.599975586</ele>
        <time>2013-01-22T14:30:45Z</time>
      </trkpt>
      <trkpt lat="45.28915" lon="5.77665">
        <ele>1514.400024414</ele>
        <time>2013-01-22T14:31:23Z</time>
      </trkpt>
      <trkpt lat="45.28912" lon="5.77656">
        <ele>1511.199951172</ele>
        <time>2013-01-22T14:31:25Z</time>
      </trkpt>
      <trkpt lat="45.28915" lon="5.7765">
        <ele>1509</ele>
        <time>2013-01-22T14:31:26Z</time>
      </trkpt>
      <trkpt lat="45.28928" lon="5.77648">
        <ele>1506.599975586</ele>
        <time>2013-01-22T14:31:29Z</time>
      </trkpt>
      <trkpt lat="45.2893" lon="5.7765">
        <ele>1507</ele>
        <time>2013-01-22T14:31:32Z</time>
      </trkpt>
      <trkpt lat="45.28925" lon="5.77638">
        <ele>1503.400024414</ele>
        <time>2013-01-22T14:31:41Z</time>
      </trkpt>
      <trkpt lat="45.28918" lon="5.77596">
        <ele>1489.199951172</ele>
        <time>2013-01-22T14:31:49Z</time>
      </trkpt>
      <trkpt lat="45.2892" lon="5.77575">
        <ele>1481.599975586</ele>
        <time>2013-01-22T14:31:53Z</time>
      </trkpt>
      <trkpt lat="45.28935" lon="5.77555">
        <ele>1473.400024414</ele>
        <time>2013-01-22T14:32:06Z</time>
      </trkpt>
      <trkpt lat="45.28932" lon="5.7755">
        <ele>1472.400024414</ele>
        <time>2013-01-22T14:32:18Z</time>
      </trkpt>
      <trkpt lat="45.28937" lon="5.77536">
        <ele>1467</ele>
        <time>2013-01-22T14:32:24Z</time>
      </trkpt>
      <trkpt lat="45.28938" lon="5.77516">
        <ele>1461</ele>
        <time>2013-01-22T14:32:28Z</time>
      </trkpt>
      <trkpt lat="45.2895" lon="5.77502">
        <ele>1455.199951172</ele>
        <time>2013-01-22T14:32:40Z</time>
      </trkpt>
      <trkpt lat="45.2895" lon="5.77496">
        <ele>1453.599975586</ele>
        <time>2013-01-22T14:32:42Z</time>
      </trkpt>
      <trkpt lat="45.28947" lon="5.77492">
        <ele>1452.599975586</ele>
        <time>2013-01-22T14:32:43Z</time>
      </trkpt>
      <trkpt lat="45.28947" lon="5.77466">
        <ele>1445.400024414</ele>
        <time>2013-01-22T14:32:47Z</time>
      </trkpt>
      <trkpt lat="45.28959" lon="5.7746">
        <ele>1442.400024414</ele>
        <time>2013-01-22T14:32:50Z</time>
      </trkpt>
      <trkpt lat="45.28961" lon="5.77445">
        <ele>1438.199951172</ele>
        <time>2013-01-22T14:32:56Z</time>
      </trkpt>
      <trkpt lat="45.28971" lon="5.77434">
        <ele>1434.800048828</ele>
        <time>2013-01-22T14:33:00Z</time>
      </trkpt>
      <trkpt lat="45.28971" lon="5.77418">
        <ele>1430.599975586</ele>
        <time>2013-01-22T14:33:04Z</time>
      </trkpt>
      <trkpt lat="45.28962" lon="5.77414">
        <ele>1430.199951172</ele>
        <time>2013-01-22T14:33:08Z</time>
      </trkpt>
      <trkpt lat="45.2896" lon="5.77387">
        <ele>1423</ele>
        <time>2013-01-22T14:33:14Z</time>
      </trkpt>
      <trkpt lat="45.28938" lon="5.77355">
        <ele>1415</ele>
        <time>2013-01-22T14:33:20Z</time>
      </trkpt>
      <trkpt lat="45.28913" lon="5.77331">
        <ele>1408.599975586</ele>
        <time>2013-01-22T14:33:25Z</time>
      </trkpt>
      <trkpt lat="45.28907" lon="5.77329">
        <ele>1408.599975586</ele>
        <time>2013-01-22T14:33:26Z</time>
      </trkpt>
      <trkpt lat="45.28895" lon="5.77317">
        <ele>1406.599975586</ele>
        <time>2013-01-22T14:33:29Z</time>
      </trkpt>
      <trkpt lat="45.28896" lon="5.77318">
        <ele>1407</ele>
        <time>2013-01-22T14:33:43Z</time>
      </trkpt>
      <trkpt lat="45.2889" lon="5.77318">
        <ele>1407.199951172</ele>
        <time>2013-01-22T14:33:48Z</time>
      </trkpt>
      <trkpt lat="45.28836" lon="5.7727">
        <ele>1399.599975586</ele>
        <time>2013-01-22T14:34:01Z</time>
      </trkpt>
      <trkpt lat="45.28831" lon="5.77268">
        <ele>1399.400024414</ele>
        <time>2013-01-22T14:34:02Z</time>
      </trkpt>
      <trkpt lat="45.28818" lon="5.77258">
        <ele>1396.400024414</ele>
        <time>2013-01-22T14:34:04Z</time>
      </trkpt>
      <trkpt lat="45.28816" lon="5.77219">
        <ele>1387.800048828</ele>
        <time>2013-01-22T14:34:07Z</time>
      </trkpt>
      <trkpt lat="45.28806" lon="5.77173">
        <ele>1378</ele>
        <time>2013-01-22T14:34:12Z</time>
      </trkpt>
      <trkpt lat="45.28796" lon="5.77163">
        <ele>1375.800048828</ele>
        <time>2013-01-22T14:34:16Z</time>
      </trkpt>
      <trkpt lat="45.288" lon="5.77166">
        <ele>1376.400024414</ele>
        <time>2013-01-22T14:34:38Z</time>
      </trkpt>
      <trkpt lat="45.288" lon="5.77163">
        <ele>1376</ele>
        <time>2013-01-22T14:35:27Z</time>
      </trkpt>
      <trkpt lat="45.28801" lon="5.77168">
        <ele>1376.800048828</ele>
        <time>2013-01-22T14:37:26Z</time>
      </trkpt>
      <trkpt lat="45.28799" lon="5.77163">
        <ele>1376</ele>
        <time>2013-01-22T14:38:38Z</time>
      </trkpt>
      <trkpt lat="45.28802" lon="5.77167">
        <ele>1376.599975586</ele>
        <time>2013-01-22T14:40:03Z</time>
      </trkpt>
      <trkpt lat="45.28801" lon="5.77162">
        <ele>1375.800048828</ele>
        <time>2013-01-22T14:40:24Z</time>
      </trkpt>
      <trkpt lat="45.28803" lon="5.77162">
        <ele>1375.800048828</ele>
        <time>2013-01-22T14:41:32Z</time>
      </trkpt>
      <trkpt lat="45.28801" lon="5.77169">
        <ele>1377</ele>
        <time>2013-01-22T14:42:26Z</time>
      </trkpt>
      <trkpt lat="45.28781" lon="5.77182">
        <ele>1379.400024414</ele>
        <time>2013-01-22T14:42:54Z</time>
      </trkpt>
      <trkpt lat="45.28767" lon="5.77215">
        <ele>1386.199951172</ele>
        <time>2013-01-22T14:43:30Z</time>
      </trkpt>
      <trkpt lat="45.28723" lon="5.77299">
        <ele>1406</ele>
        <time>2013-01-22T14:45:02Z</time>
      </trkpt>
      <trkpt lat="45.28704" lon="5.77331">
        <ele>1413.599975586</ele>
        <time>2013-01-22T14:45:46Z</time>
      </trkpt>
      <trkpt lat="45.28674" lon="5.77373">
        <ele>1424.599975586</ele>
        <time>2013-01-22T14:46:52Z</time>
      </trkpt>
      <trkpt lat="45.28649" lon="5.77403">
        <ele>1436.400024414</ele>
        <time>2013-01-22T14:47:44Z</time>
      </trkpt>
      <trkpt lat="45.28647" lon="5.77448">
        <ele>1449.199951172</ele>
        <time>2013-01-22T14:48:39Z</time>
      </trkpt>
      <trkpt lat="45.2865" lon="5.77482">
        <ele>1457.400024414</ele>
        <time>2013-01-22T14:49:17Z</time>
      </trkpt>
      <trkpt lat="45.28648" lon="5.77489">
        <ele>1459.599975586</ele>
        <time>2013-01-22T14:49:27Z</time>
      </trkpt>
      <trkpt lat="45.28613" lon="5.77494">
        <ele>1466</ele>
        <time>2013-01-22T14:50:27Z</time>
      </trkpt>
      <trkpt lat="45.28609" lon="5.77498">
        <ele>1467.800048828</ele>
        <time>2013-01-22T14:50:36Z</time>
      </trkpt>
      <trkpt lat="45.28618" lon="5.77553">
        <ele>1480.400024414</ele>
        <time>2013-01-22T14:51:41Z</time>
      </trkpt>
      <trkpt lat="45.28593" lon="5.77558">
        <ele>1484.599975586</ele>
        <time>2013-01-22T14:52:22Z</time>
      </trkpt>
      <trkpt lat="45.28599" lon="5.77579">
        <ele>1489.199951172</ele>
        <time>2013-01-22T14:52:52Z</time>
      </trkpt>
      <trkpt lat="45.28577" lon="5.77586">
        <ele>1494.800048828</ele>
        <time>2013-01-22T14:53:28Z</time>
      </trkpt>
      <trkpt lat="45.28586" lon="5.77616">
        <ele>1502.199951172</ele>
        <time>2013-01-22T14:54:07Z</time>
      </trkpt>
      <trkpt lat="45.28567" lon="5.77625">
        <ele>1510.199951172</ele>
        <time>2013-01-22T14:54:42Z</time>
      </trkpt>
      <trkpt lat="45.28568" lon="5.77635">
        <ele>1513.199951172</ele>
        <time>2013-01-22T14:54:57Z</time>
      </trkpt>
      <trkpt lat="45.28555" lon="5.77636">
        <ele>1517.400024414</ele>
        <time>2013-01-22T14:55:15Z</time>
      </trkpt>
      <trkpt lat="45.28527" lon="5.77646">
        <ele>1529.199951172</ele>
        <time>2013-01-22T14:55:49Z</time>
      </trkpt>
      <trkpt lat="45.28521" lon="5.77653">
        <ele>1533.199951172</ele>
        <time>2013-01-22T14:55:58Z</time>
      </trkpt>
      <trkpt lat="45.28522" lon="5.77658">
        <ele>1534.400024414</ele>
        <time>2013-01-22T14:56:05Z</time>
      </trkpt>
      <trkpt lat="45.28553" lon="5.77687">
        <ele>1537.400024414</ele>
        <time>2013-01-22T14:56:54Z</time>
      </trkpt>
      <trkpt lat="45.28557" lon="5.777">
        <ele>1541.599975586</ele>
        <time>2013-01-22T14:57:06Z</time>
      </trkpt>
      <trkpt lat="45.28547" lon="5.77706">
        <ele>1547.400024414</ele>
        <time>2013-01-22T14:57:22Z</time>
      </trkpt>
      <trkpt lat="45.28565" lon="5.7773">
        <ele>1553.400024414</ele>
        <time>2013-01-22T14:58:02Z</time>
      </trkpt>
      <trkpt lat="45.28581" lon="5.77778">
        <ele>1569.599975586</ele>
        <time>2013-01-22T14:58:58Z</time>
      </trkpt>
      <trkpt lat="45.28587" lon="5.77783">
        <ele>1570.599975586</ele>
        <time>2013-01-22T14:59:04Z</time>
      </trkpt>
      <trkpt lat="45.28587" lon="5.77791">
        <ele>1573.800048828</ele>
        <time>2013-01-22T14:59:14Z</time>
      </trkpt>
      <trkpt lat="45.28591" lon="5.77808">
        <ele>1579.800048828</ele>
        <time>2013-01-22T14:59:34Z</time>
      </trkpt>
      <trkpt lat="45.28591" lon="5.77817">
        <ele>1583.199951172</ele>
        <time>2013-01-22T14:59:42Z</time>
      </trkpt>
      <trkpt lat="45.28595" lon="5.7783">
        <ele>1587.800048828</ele>
        <time>2013-01-22T14:59:57Z</time>
      </trkpt>
      <trkpt lat="45.28594" lon="5.77835">
        <ele>1589.800048828</ele>
        <time>2013-01-22T15:00:02Z</time>
      </trkpt>
      <trkpt lat="45.28602" lon="5.77854">
        <ele>1595.800048828</ele>
        <time>2013-01-22T15:00:24Z</time>
      </trkpt>
      <trkpt lat="45.28614" lon="5.77867">
        <ele>1599.400024414</ele>
        <time>2013-01-22T15:00:48Z</time>
      </trkpt>
      <trkpt lat="45.28623" lon="5.77886">
        <ele>1605.400024414</ele>
        <time>2013-01-22T15:01:18Z</time>
      </trkpt>
      <trkpt lat="45.2863" lon="5.77886">
        <ele>1605.199951172</ele>
        <time>2013-01-22T15:01:29Z</time>
      </trkpt>
      <trkpt lat="45.28646" lon="5.77901">
        <ele>1609.599975586</ele>
        <time>2013-01-22T15:02:02Z</time>
      </trkpt>
      <trkpt lat="45.28641" lon="5.77914">
        <ele>1614.800048828</ele>
        <time>2013-01-22T15:02:23Z</time>
      </trkpt>
      <trkpt lat="45.28616" lon="5.77947">
        <ele>1630.400024414</ele>
        <time>2013-01-22T15:03:18Z</time>
      </trkpt>
      <trkpt lat="45.28614" lon="5.77955">
        <ele>1633.199951172</ele>
        <time>2013-01-22T15:03:28Z</time>
      </trkpt>
      <trkpt lat="45.28604" lon="5.77962">
        <ele>1636.599975586</ele>
        <time>2013-01-22T15:03:47Z</time>
      </trkpt>
      <trkpt lat="45.28594" lon="5.77963">
        <ele>1637.199951172</ele>
        <time>2013-01-22T15:04:06Z</time>
      </trkpt>
      <trkpt lat="45.28587" lon="5.77958">
        <ele>1635.800048828</ele>
        <time>2013-01-22T15:04:18Z</time>
      </trkpt>
      <trkpt lat="45.28583" lon="5.77961">
        <ele>1636.800048828</ele>
        <time>2013-01-22T15:04:28Z</time>
      </trkpt>
      <trkpt lat="45.28588" lon="5.77986">
        <ele>1646</ele>
        <time>2013-01-22T15:04:57Z</time>
      </trkpt>
      <trkpt lat="45.28596" lon="5.78002">
        <ele>1652</ele>
        <time>2013-01-22T15:05:19Z</time>
      </trkpt>
      <trkpt lat="45.28617" lon="5.78018">
        <ele>1659.199951172</ele>
        <time>2013-01-22T15:05:52Z</time>
      </trkpt>
      <trkpt lat="45.28643" lon="5.78027">
        <ele>1662.599975586</ele>
        <time>2013-01-22T15:06:23Z</time>
      </trkpt>
      <trkpt lat="45.28631" lon="5.78038">
        <ele>1667.400024414</ele>
        <time>2013-01-22T15:06:45Z</time>
      </trkpt>
      <trkpt lat="45.28665" lon="5.78053">
        <ele>1672.199951172</ele>
        <time>2013-01-22T15:07:38Z</time>
      </trkpt>
      <trkpt lat="45.28649" lon="5.78072">
        <ele>1680.599975586</ele>
        <time>2013-01-22T15:08:08Z</time>
      </trkpt>
      <trkpt lat="45.28624" lon="5.7809">
        <ele>1690.599975586</ele>
        <time>2013-01-22T15:08:48Z</time>
      </trkpt>
      <trkpt lat="45.28671" lon="5.78116">
        <ele>1697.800048828</ele>
        <time>2013-01-22T15:10:09Z</time>
      </trkpt>
      <trkpt lat="45.28662" lon="5.78135">
        <ele>1707.400024414</ele>
        <time>2013-01-22T15:10:46Z</time>
      </trkpt>
      <trkpt lat="45.28646" lon="5.78152">
        <ele>1719.400024414</ele>
        <time>2013-01-22T15:11:27Z</time>
      </trkpt>
      <trkpt lat="45.28666" lon="5.78168">
        <ele>1720.800048828</ele>
        <time>2013-01-22T15:12:05Z</time>
      </trkpt>
      <trkpt lat="45.2869" lon="5.7818">
        <ele>1729</ele>
        <time>2013-01-22T15:12:46Z</time>
      </trkpt>
      <trkpt lat="45.28709" lon="5.78186">
        <ele>1732.800048828</ele>
        <time>2013-01-22T15:13:31Z</time>
      </trkpt>
      <trkpt lat="45.28698" lon="5.78206">
        <ele>1745.800048828</ele>
        <time>2013-01-22T15:14:12Z</time>
      </trkpt>
      <trkpt lat="45.28709" lon="5.7821">
        <ele>1748.199951172</ele>
        <time>2013-01-22T15:14:33Z</time>
      </trkpt>
      <trkpt lat="45.28732" lon="5.78229">
        <ele>1760.199951172</ele>
        <time>2013-01-22T15:15:40Z</time>
      </trkpt>
      <trkpt lat="45.28708" lon="5.78255">
        <ele>1776.599975586</ele>
        <time>2013-01-22T15:17:14Z</time>
      </trkpt>
      <trkpt lat="45.28732" lon="5.78278">
        <ele>1790.599975586</ele>
        <time>2013-01-22T15:18:46Z</time>
      </trkpt>
      <trkpt lat="45.28722" lon="5.78284">
        <ele>1794</ele>
        <time>2013-01-22T15:19:21Z</time>
      </trkpt>
      <trkpt lat="45.28726" lon="5.78291">
        <ele>1798.199951172</ele>
        <time>2013-01-22T15:19:43Z</time>
      </trkpt>
      <trkpt lat="45.28737" lon="5.78299">
        <ele>1803.199951172</ele>
        <time>2013-01-22T15:20:12Z</time>
      </trkpt>
      <trkpt lat="45.28719" lon="5.78308">
        <ele>1807.599975586</ele>
        <time>2013-01-22T15:20:56Z</time>
      </trkpt>
      <trkpt lat="45.2873" lon="5.78315">
        <ele>1812.800048828</ele>
        <time>2013-01-22T15:21:39Z</time>
      </trkpt>
      <trkpt lat="45.28749" lon="5.78332">
        <ele>1825.199951172</ele>
        <time>2013-01-22T15:22:30Z</time>
      </trkpt>
      <trkpt lat="45.28785" lon="5.78355">
        <ele>1827.599975586</ele>
        <time>2013-01-22T15:25:00Z</time>
      </trkpt>
      <trkpt lat="45.28803" lon="5.78369">
        <ele>1831.599975586</ele>
        <time>2013-01-22T15:25:35Z</time>
      </trkpt>
      <trkpt lat="45.28806" lon="5.78378">
        <ele>1836</ele>
        <time>2013-01-22T15:26:38Z</time>
      </trkpt>
      <trkpt lat="45.28804" lon="5.78377">
        <ele>1835.800048828</ele>
        <time>2013-01-22T15:32:37Z</time>
      </trkpt>
      <trkpt lat="45.28811" lon="5.78367">
        <ele>1827.800048828</ele>
        <time>2013-01-22T15:35:13Z</time>
      </trkpt>
      <trkpt lat="45.28828" lon="5.78366">
        <ele>1822.199951172</ele>
        <time>2013-01-22T15:35:19Z</time>
      </trkpt>
      <trkpt lat="45.28842" lon="5.78336">
        <ele>1798.400024414</ele>
        <time>2013-01-22T15:35:26Z</time>
      </trkpt>
      <trkpt lat="45.2885" lon="5.78326">
        <ele>1790.199951172</ele>
        <time>2013-01-22T15:35:29Z</time>
      </trkpt>
      <trkpt lat="45.28866" lon="5.78328">
        <ele>1786.599975586</ele>
        <time>2013-01-22T15:35:33Z</time>
      </trkpt>
      <trkpt lat="45.28873" lon="5.78324">
        <ele>1782.199951172</ele>
        <time>2013-01-22T15:35:36Z</time>
      </trkpt>
      <trkpt lat="45.28866" lon="5.78312">
        <ele>1778</ele>
        <time>2013-01-22T15:35:38Z</time>
      </trkpt>
      <trkpt lat="45.28871" lon="5.78238">
        <ele>1737.800048828</ele>
        <time>2013-01-22T15:35:53Z</time>
      </trkpt>
      <trkpt lat="45.28866" lon="5.78224">
        <ele>1732.400024414</ele>
        <time>2013-01-22T15:35:56Z</time>
      </trkpt>
      <trkpt lat="45.28865" lon="5.78211">
        <ele>1727</ele>
        <time>2013-01-22T15:35:59Z</time>
      </trkpt>
      <trkpt lat="45.28875" lon="5.78188">
        <ele>1714.800048828</ele>
        <time>2013-01-22T15:36:05Z</time>
      </trkpt>
      <trkpt lat="45.28871" lon="5.78177">
        <ele>1710.599975586</ele>
        <time>2013-01-22T15:36:08Z</time>
      </trkpt>
      <trkpt lat="45.28873" lon="5.78168">
        <ele>1706.599975586</ele>
        <time>2013-01-22T15:36:11Z</time>
      </trkpt>
      <trkpt lat="45.2887" lon="5.78154">
        <ele>1700.800048828</ele>
        <time>2013-01-22T15:36:14Z</time>
      </trkpt>
      <trkpt lat="45.28871" lon="5.78129">
        <ele>1690</ele>
        <time>2013-01-22T15:36:20Z</time>
      </trkpt>
      <trkpt lat="45.28866" lon="5.78114">
        <ele>1683.800048828</ele>
        <time>2013-01-22T15:36:23Z</time>
      </trkpt>
      <trkpt lat="45.28858" lon="5.78101">
        <ele>1679.400024414</ele>
        <time>2013-01-22T15:36:27Z</time>
      </trkpt>
      <trkpt lat="45.28858" lon="5.78103">
        <ele>1680.400024414</ele>
        <time>2013-01-22T15:36:31Z</time>
      </trkpt>
      <trkpt lat="45.28863" lon="5.78102">
        <ele>1679.400024414</ele>
        <time>2013-01-22T15:36:48Z</time>
      </trkpt>
      <trkpt lat="45.28861" lon="5.78104">
        <ele>1680.400024414</ele>
        <time>2013-01-22T15:37:12Z</time>
      </trkpt>
      <trkpt lat="45.28863" lon="5.78099">
        <ele>1677.800048828</ele>
        <time>2013-01-22T15:38:19Z</time>
      </trkpt>
      <trkpt lat="45.28864" lon="5.78064">
        <ele>1664</ele>
        <time>2013-01-22T15:38:26Z</time>
      </trkpt>
      <trkpt lat="45.28858" lon="5.78049">
        <ele>1658.800048828</ele>
        <time>2013-01-22T15:38:30Z</time>
      </trkpt>
      <trkpt lat="45.28863" lon="5.78035">
        <ele>1653.400024414</ele>
        <time>2013-01-22T15:38:33Z</time>
      </trkpt>
      <trkpt lat="45.28889" lon="5.78">
        <ele>1637.199951172</ele>
        <time>2013-01-22T15:38:43Z</time>
      </trkpt>
      <trkpt lat="45.28891" lon="5.77982">
        <ele>1630.800048828</ele>
        <time>2013-01-22T15:38:47Z</time>
      </trkpt>
      <trkpt lat="45.28887" lon="5.77962">
        <ele>1624.599975586</ele>
        <time>2013-01-22T15:38:50Z</time>
      </trkpt>
      <trkpt lat="45.28894" lon="5.77954">
        <ele>1621</ele>
        <time>2013-01-22T15:38:53Z</time>
      </trkpt>
      <trkpt lat="45.28887" lon="5.7794">
        <ele>1616.800048828</ele>
        <time>2013-01-22T15:38:57Z</time>
      </trkpt>
      <trkpt lat="45.28886" lon="5.77922">
        <ele>1610.599975586</ele>
        <time>2013-01-22T15:39:01Z</time>
      </trkpt>
      <trkpt lat="45.28879" lon="5.77906">
        <ele>1605.400024414</ele>
        <time>2013-01-22T15:39:05Z</time>
      </trkpt>
      <trkpt lat="45.28877" lon="5.77882">
        <ele>1596.800048828</ele>
        <time>2013-01-22T15:39:09Z</time>
      </trkpt>
      <trkpt lat="45.28882" lon="5.77864">
        <ele>1589.599975586</ele>
        <time>2013-01-22T15:39:13Z</time>
      </trkpt>
      <trkpt lat="45.28897" lon="5.77846">
        <ele>1582</ele>
        <time>2013-01-22T15:39:17Z</time>
      </trkpt>
      <trkpt lat="45.28898" lon="5.77836">
        <ele>1578.199951172</ele>
        <time>2013-01-22T15:39:24Z</time>
      </trkpt>
      <trkpt lat="45.28902" lon="5.77835">
        <ele>1577.599975586</ele>
        <time>2013-01-22T15:39:26Z</time>
      </trkpt>
      <trkpt lat="45.28909" lon="5.77821">
        <ele>1571.800048828</ele>
        <time>2013-01-22T15:39:33Z</time>
      </trkpt>
      <trkpt lat="45.2891" lon="5.77796">
        <ele>1562.800048828</ele>
        <time>2013-01-22T15:39:40Z</time>
      </trkpt>
      <trkpt lat="45.28908" lon="5.77789">
        <ele>1560.400024414</ele>
        <time>2013-01-22T15:39:41Z</time>
      </trkpt>
      <trkpt lat="45.28912" lon="5.77779">
        <ele>1556.400024414</ele>
        <time>2013-01-22T15:39:44Z</time>
      </trkpt>
      <trkpt lat="45.28915" lon="5.77762">
        <ele>1550.199951172</ele>
        <time>2013-01-22T15:39:48Z</time>
      </trkpt>
      <trkpt lat="45.28919" lon="5.77752">
        <ele>1546</ele>
        <time>2013-01-22T15:39:51Z</time>
      </trkpt>
      <trkpt lat="45.28921" lon="5.77735">
        <ele>1539.599975586</ele>
        <time>2013-01-22T15:39:55Z</time>
      </trkpt>
      <trkpt lat="45.28919" lon="5.77728">
        <ele>1537.400024414</ele>
        <time>2013-01-22T15:39:58Z</time>
      </trkpt>
      <trkpt lat="45.28916" lon="5.7773">
        <ele>1538.599975586</ele>
        <time>2013-01-22T15:40:04Z</time>
      </trkpt>
      <trkpt lat="45.28935" lon="5.77717">
        <ele>1530.599975586</ele>
        <time>2013-01-22T15:40:40Z</time>
      </trkpt>
      <trkpt lat="45.28938" lon="5.77701">
        <ele>1524.199951172</ele>
        <time>2013-01-22T15:40:43Z</time>
      </trkpt>
      <trkpt lat="45.28932" lon="5.77679">
        <ele>1517.400024414</ele>
        <time>2013-01-22T15:40:47Z</time>
      </trkpt>
      <trkpt lat="45.28928" lon="5.77648">
        <ele>1506.599975586</ele>
        <time>2013-01-22T15:40:53Z</time>
      </trkpt>
      <trkpt lat="45.28915" lon="5.77612">
        <ele>1495.400024414</ele>
        <time>2013-01-22T15:40:59Z</time>
      </trkpt>
      <trkpt lat="45.28914" lon="5.77605">
        <ele>1492.800048828</ele>
        <time>2013-01-22T15:41:00Z</time>
      </trkpt>
      <trkpt lat="45.28925" lon="5.77576">
        <ele>1481.400024414</ele>
        <time>2013-01-22T15:41:08Z</time>
      </trkpt>
      <trkpt lat="45.28926" lon="5.7758">
        <ele>1482.400024414</ele>
        <time>2013-01-22T15:41:16Z</time>
      </trkpt>
      <trkpt lat="45.28917" lon="5.77566">
        <ele>1479.400024414</ele>
        <time>2013-01-22T15:41:29Z</time>
      </trkpt>
      <trkpt lat="45.28915" lon="5.77556">
        <ele>1476.199951172</ele>
        <time>2013-01-22T15:41:33Z</time>
      </trkpt>
      <trkpt lat="45.28908" lon="5.7754">
        <ele>1471.199951172</ele>
        <time>2013-01-22T15:41:37Z</time>
      </trkpt>
      <trkpt lat="45.28921" lon="5.77516">
        <ele>1463.400024414</ele>
        <time>2013-01-22T15:41:45Z</time>
      </trkpt>
      <trkpt lat="45.28922" lon="5.77523">
        <ele>1465.400024414</ele>
        <time>2013-01-22T15:42:12Z</time>
      </trkpt>
      <trkpt lat="45.28921" lon="5.77519">
        <ele>1464.199951172</ele>
        <time>2013-01-22T15:42:42Z</time>
      </trkpt>
      <trkpt lat="45.28928" lon="5.77506">
        <ele>1459.400024414</ele>
        <time>2013-01-22T15:43:20Z</time>
      </trkpt>
      <trkpt lat="45.28926" lon="5.77506">
        <ele>1459.599975586</ele>
        <time>2013-01-22T15:43:23Z</time>
      </trkpt>
      <trkpt lat="45.28932" lon="5.77503">
        <ele>1457.800048828</ele>
        <time>2013-01-22T15:43:27Z</time>
      </trkpt>
      <trkpt lat="45.28961" lon="5.77471">
        <ele>1445.400024414</ele>
        <time>2013-01-22T15:43:38Z</time>
      </trkpt>
      <trkpt lat="45.28965" lon="5.77457">
        <ele>1441</ele>
        <time>2013-01-22T15:43:42Z</time>
      </trkpt>
      <trkpt lat="45.28958" lon="5.77444">
        <ele>1438.199951172</ele>
        <time>2013-01-22T15:43:45Z</time>
      </trkpt>
      <trkpt lat="45.28963" lon="5.77436">
        <ele>1435.800048828</ele>
        <time>2013-01-22T15:43:48Z</time>
      </trkpt>
      <trkpt lat="45.28977" lon="5.7743">
        <ele>1433.400024414</ele>
        <time>2013-01-22T15:43:52Z</time>
      </trkpt>
      <trkpt lat="45.28975" lon="5.77417">
        <ele>1430.199951172</ele>
        <time>2013-01-22T15:43:55Z</time>
      </trkpt>
      <trkpt lat="45.28952" lon="5.774">
        <ele>1426.800048828</ele>
        <time>2013-01-22T15:44:05Z</time>
      </trkpt>
      <trkpt lat="45.28949" lon="5.77378">
        <ele>1421</ele>
        <time>2013-01-22T15:44:08Z</time>
      </trkpt>
      <trkpt lat="45.28927" lon="5.77341">
        <ele>1411.199951172</ele>
        <time>2013-01-22T15:44:14Z</time>
      </trkpt>
      <trkpt lat="45.28906" lon="5.77322">
        <ele>1407</ele>
        <time>2013-01-22T15:44:17Z</time>
      </trkpt>
      <trkpt lat="45.28884" lon="5.77309">
        <ele>1405.599975586</ele>
        <time>2013-01-22T15:44:20Z</time>
      </trkpt>
      <trkpt lat="45.28824" lon="5.77255">
        <ele>1396</ele>
        <time>2013-01-22T15:44:29Z</time>
      </trkpt>
      <trkpt lat="45.28819" lon="5.77246">
        <ele>1393.599975586</ele>
        <time>2013-01-22T15:44:30Z</time>
      </trkpt>
      <trkpt lat="45.28811" lon="5.77209">
        <ele>1385.599975586</ele>
        <time>2013-01-22T15:44:33Z</time>
      </trkpt>
      <trkpt lat="45.28805" lon="5.77165">
        <ele>1376.400024414</ele>
        <time>2013-01-22T15:44:37Z</time>
      </trkpt>
      <trkpt lat="45.28795" lon="5.77152">
        <ele>1374</ele>
        <time>2013-01-22T15:44:40Z</time>
      </trkpt>
      <trkpt lat="45.28798" lon="5.77155">
        <ele>1374.599975586</ele>
        <time>2013-01-22T15:44:43Z</time>
      </trkpt>
      <trkpt lat="45.28802" lon="5.77149">
        <ele>1373.800048828</ele>
        <time>2013-01-22T15:45:01Z</time>
      </trkpt>
      <trkpt lat="45.28806" lon="5.77131">
        <ele>1371</ele>
        <time>2013-01-22T15:45:04Z</time>
      </trkpt>
      <trkpt lat="45.28804" lon="5.77106">
        <ele>1367</ele>
        <time>2013-01-22T15:45:07Z</time>
      </trkpt>
      <trkpt lat="45.28808" lon="5.77075">
        <ele>1362.800048828</ele>
        <time>2013-01-22T15:45:11Z</time>
      </trkpt>
      <trkpt lat="45.28821" lon="5.77012">
        <ele>1356.800048828</ele>
        <time>2013-01-22T15:45:18Z</time>
      </trkpt>
      <trkpt lat="45.28829" lon="5.7699">
        <ele>1354.800048828</ele>
        <time>2013-01-22T15:45:20Z</time>
      </trkpt>
      <trkpt lat="45.2886" lon="5.76923">
        <ele>1347</ele>
        <time>2013-01-22T15:45:26Z</time>
      </trkpt>
      <trkpt lat="45.28868" lon="5.76897">
        <ele>1344.199951172</ele>
        <time>2013-01-22T15:45:28Z</time>
      </trkpt>
      <trkpt lat="45.28876" lon="5.76832">
        <ele>1337.800048828</ele>
        <time>2013-01-22T15:45:33Z</time>
      </trkpt>
      <trkpt lat="45.28887" lon="5.76805">
        <ele>1337.400024414</ele>
        <time>2013-01-22T15:45:36Z</time>
      </trkpt>
      <trkpt lat="45.28914" lon="5.7678">
        <ele>1333.800048828</ele>
        <time>2013-01-22T15:45:44Z</time>
      </trkpt>
      <trkpt lat="45.28925" lon="5.76766">
        <ele>1333.199951172</ele>
        <time>2013-01-22T15:45:48Z</time>
      </trkpt>
      <trkpt lat="45.28969" lon="5.76727">
        <ele>1330.199951172</ele>
        <time>2013-01-22T15:46:07Z</time>
      </trkpt>
      <trkpt lat="45.28972" lon="5.76727">
        <ele>1330</ele>
        <time>2013-01-22T15:46:12Z</time>
      </trkpt>
      <trkpt lat="45.2897" lon="5.76729">
        <ele>1330</ele>
        <time>2013-01-22T15:46:32Z</time>
      </trkpt>
      <trkpt lat="45.28971" lon="5.76731">
        <ele>1330.199951172</ele>
        <time>2013-01-22T15:46:46Z</time>
      </trkpt>
      <trkpt lat="45.28971" lon="5.76729">
        <ele>1330</ele>
        <time>2013-01-22T15:47:06Z</time>
      </trkpt>
      <trkpt lat="45.28973" lon="5.76731">
        <ele>1330</ele>
        <time>2013-01-22T15:47:12Z</time>
      </trkpt>
      <trkpt lat="45.28971" lon="5.76729">
        <ele>1330</ele>
        <time>2013-01-22T15:47:55Z</time>
      </trkpt>
      <trkpt lat="45.28971" lon="5.76736">
        <ele>1330.199951172</ele>
        <time>2013-01-22T15:48:13Z</time>
      </trkpt>
      <trkpt lat="45.28973" lon="5.76732">
        <ele>1330</ele>
        <time>2013-01-22T15:48:19Z</time>
      </trkpt>
      <trkpt lat="45.28972" lon="5.76735">
        <ele>1330.199951172</ele>
        <time>2013-01-22T15:50:46Z</time>
      </trkpt>
      <trkpt lat="45.28976" lon="5.76731">
        <ele>1329.800048828</ele>
        <time>2013-01-22T15:51:36Z</time>
      </trkpt>
      <trkpt lat="45.28972" lon="5.76732">
        <ele>1330</ele>
        <time>2013-01-22T15:51:49Z</time>
      </trkpt>
      <trkpt lat="45.28973" lon="5.76734">
        <ele>1330</ele>
        <time>2013-01-22T15:52:05Z</time>
      </trkpt>
      <trkpt lat="45.28972" lon="5.76729">
        <ele>1330</ele>
        <time>2013-01-22T15:52:18Z</time>
      </trkpt>
      <trkpt lat="45.28989" lon="5.76704">
        <ele>1328.400024414</ele>
        <time>2013-01-22T15:52:37Z</time>
      </trkpt>
      <trkpt lat="45.29005" lon="5.76701">
        <ele>1327.800048828</ele>
        <time>2013-01-22T15:52:51Z</time>
      </trkpt>
      <trkpt lat="45.29008" lon="5.76703">
        <ele>1327.800048828</ele>
        <time>2013-01-22T15:52:58Z</time>
      </trkpt>
      <trkpt lat="45.29006" lon="5.767">
        <ele>1327.599975586</ele>
        <time>2013-01-22T15:53:52Z</time>
      </trkpt>
      <trkpt lat="45.28993" lon="5.76707">
        <ele>1328.199951172</ele>
        <time>2013-01-22T15:54:06Z</time>
      </trkpt>
      <trkpt lat="45.28976" lon="5.76728">
        <ele>1329.800048828</ele>
        <time>2013-01-22T15:54:35Z</time>
      </trkpt>
      <trkpt lat="45.28975" lon="5.76733">
        <ele>1330</ele>
        <time>2013-01-22T15:54:53Z</time>
      </trkpt>
      <trkpt lat="45.28973" lon="5.7673">
        <ele>1330</ele>
        <time>2013-01-22T15:55:34Z</time>
      </trkpt>
      <trkpt lat="45.28971" lon="5.76734">
        <ele>1330.199951172</ele>
        <time>2013-01-22T15:55:40Z</time>
      </trkpt>
      <trkpt lat="45.28974" lon="5.76734">
        <ele>1330</ele>
        <time>2013-01-22T15:55:45Z</time>
      </trkpt>
      <trkpt lat="45.28973" lon="5.76736">
        <ele>1330.199951172</ele>
        <time>2013-01-22T15:55:58Z</time>
      </trkpt>
      <trkpt lat="45.28973" lon="5.76733">
        <ele>1330</ele>
        <time>2013-01-22T15:56:00Z</time>
      </trkpt>
      <trkpt lat="45.28975" lon="5.76731">
        <ele>1329.800048828</ele>
        <time>2013-01-22T15:56:02Z</time>
      </trkpt>
      <trkpt lat="45.28976" lon="5.76734">
        <ele>1329.800048828</ele>
        <time>2013-01-22T15:56:05Z</time>
      </trkpt>
      <trkpt lat="45.28975" lon="5.76735">
        <ele>1330</ele>
        <time>2013-01-22T15:56:39Z</time>
      </trkpt>
      <trkpt lat="45.28977" lon="5.76733">
        <ele>1329.800048828</ele>
        <time>2013-01-22T15:56:54Z</time>
      </trkpt>
    </trkseg>
  </trk>
</gpx>